Time;durP1;ratioP1;P1;durP2;ratioP2;P2;SDS_P1;SDS_P2;PMS_P1;PMS_P2;Temp;Humidity;BMP_temperature;BMP_pressure;BME280_temperature;BME280_humidity;BME280_pressure;Samples;Min_cycle;Max_cycle;Signal;HPM_P1;HPM_P2
2021/12/02 00:01:09;;;;;;;0.17;0.17;;;;;;;-142.99;100.00;60561.41;5097644;28;20180;-67
2021/12/02 00:03:36;;;;;;;0.30;0.30;;;;;;;-142.99;100.00;60561.41;5097388;28;20768;-67
2021/12/02 00:06:01;;;;;;;0.47;0.40;;;;;;;3.05;nan;97379.16;5097290;28;20658;-67
2021/12/02 00:08:26;;;;;;;0.20;0.20;;;;;;;2.15;nan;97375.41;5097332;28;20161;-67
2021/12/02 00:10:52;;;;;;;0.63;0.60;;;;;;;2.40;nan;97414.78;5097111;28;20174;-67
2021/12/02 00:13:22;;;;;;;0.20;0.20;;;;;;;2.37;nan;97435.22;5097440;28;20642;-68
2021/12/02 00:15:56;;;;;;;0.30;0.30;;;;;;;2.41;nan;97412.97;5115595;28;20538;-67
2021/12/02 00:21:05;;;;;;;0.33;0.30;;;;;;;2.41;nan;97429.63;5115572;28;20201;-67
2021/12/02 00:23:37;;;;;;;1.23;0.20;;;;;;;2.44;nan;97457.50;5099576;28;20185;-68
2021/12/02 00:26:08;;;;;;;3.63;0.60;;;;;;;2.20;nan;97468.00;5097021;28;20474;-67
2021/12/02 00:28:36;;;;;;;0.20;0.20;;;;;;;2.25;nan;97457.19;5097194;28;20422;-67
2021/12/02 00:31:02;;;;;;;1.23;0.40;;;;;;;2.26;nan;97435.19;5096821;28;20410;-67
2021/12/02 00:33:29;;;;;;;0.73;0.20;;;;;;;2.30;nan;97432.19;5079892;28;20953;-67
2021/12/02 00:35:55;;;;;;;0.27;0.27;;;;;;;2.13;nan;97472.03;5096497;28;20199;-67
2021/12/02 00:38:21;;;;;;;0.20;0.20;;;;;;;2.35;nan;97466.06;5114903;28;20172;-67
2021/12/02 00:40:46;;;;;;;0.20;0.20;;;;;;;2.24;nan;97511.59;5096706;28;20176;-67
2021/12/02 00:43:12;;;;;;;0.17;0.10;;;;;;;2.22;nan;97465.25;5096899;28;20401;-66
2021/12/02 00:45:40;;;;;;;0.30;0.20;;;;;;;2.27;nan;97502.63;5114532;28;20166;-68
2021/12/02 00:48:07;;;;;;;0.43;0.20;;;;;;;2.19;nan;97506.63;5114679;28;20604;-68
2021/12/02 00:50:32;;;;;;;0.20;0.20;;;;;;;2.22;nan;97502.09;5114853;28;20899;-68
2021/12/02 00:52:58;;;;;;;0.20;0.20;;;;;;;2.30;nan;97519.03;5097063;28;20424;-69
2021/12/02 00:55:25;;;;;;;0.30;0.30;;;;;;;2.29;nan;97522.63;5096869;28;20222;-69
2021/12/02 00:57:50;;;;;;;0.20;0.20;;;;;;;2.44;nan;97515.41;5096063;28;20212;-69
2021/12/02 01:00:16;;;;;;;2.10;0.30;;;;;;;2.38;nan;97534.28;5114686;28;20481;-69
2021/12/02 01:02:42;;;;;;;0.10;0.10;;;;;;;2.53;nan;97488.41;5079133;28;20178;-69
2021/12/02 01:05:08;;;;;;;0.73;0.63;;;;;;;2.36;nan;97521.22;5096230;28;20559;-68
2021/12/02 01:07:33;;;;;;;0.20;0.20;;;;;;;2.39;nan;97557.84;5096420;28;20440;-67
2021/12/02 01:09:59;;;;;;;0.20;0.20;;;;;;;2.38;nan;97545.66;5096512;28;20180;-69
2021/12/02 01:12:25;;;;;;;0.53;0.30;;;;;;;2.59;nan;97553.78;5095916;28;20180;-69
2021/12/02 01:14:50;;;;;;;0.80;0.20;;;;;;;2.47;nan;97575.72;5097041;28;20172;-68
2021/12/02 01:17:15;;;;;;;0.10;0.10;;;;;;;2.36;nan;97551.97;5115389;28;20193;-69
2021/12/02 01:19:41;;;;;;;0.20;0.20;;;;;;;2.18;nan;97510.22;5097092;28;20169;-68
2021/12/02 01:22:07;;;;;;;0.10;0.10;;;;;;;2.47;nan;97607.31;5096743;28;20176;-70
2021/12/02 01:24:33;;;;;;;0.10;0.10;;;;;;;2.37;nan;97643.16;5096064;28;20193;-70
2021/12/02 01:27:02;;;;;;;0.10;0.10;;;;;;;2.58;nan;97586.31;5113974;28;20434;-70
2021/12/02 01:29:28;;;;;;;0.20;0.20;;;;;;;2.46;nan;97547.72;5079397;28;20177;-71
2021/12/02 01:31:56;;;;;;;1.40;0.20;;;;;;;2.47;nan;97573.09;5116210;28;20173;-71
2021/12/02 01:34:24;;;;;;;0.50;0.30;;;;;;;2.50;nan;97554.44;5096305;28;20161;-70
2021/12/02 01:36:50;;;;;;;0.20;0.20;;;;;;;2.77;nan;97604.28;5113280;28;20431;-70
2021/12/02 01:39:16;;;;;;;0.20;0.20;;;;;;;2.71;nan;97563.44;5095552;28;20169;-71
2021/12/02 01:41:48;;;;;;;0.20;0.20;;;;;;;2.58;nan;97520.50;5095993;28;20185;-70
2021/12/02 01:44:15;;;;;;;0.33;0.30;;;;;;;2.88;nan;97592.97;5095674;28;20190;-70
2021/12/02 01:46:42;;;;;;;1.40;0.30;;;;;;;2.79;nan;97594.47;5095414;28;20712;-70
2021/12/02 01:49:08;;;;;;;0.50;0.30;;;;;;;2.80;nan;97618.06;5113666;28;20406;-70
2021/12/02 01:51:42;;;;;;;3.27;0.40;;;;;;;2.94;nan;97638.13;5095455;28;20193;-70
2021/12/02 01:54:14;;;;;;;0.47;0.33;;;;;;;3.09;nan;97607.22;5095683;28;20153;-70
2021/12/02 01:56:42;;;;;;;0.40;0.30;;;;;;;2.90;nan;97654.28;5113424;28;20208;-70
2021/12/02 01:59:13;;;;;;;0.33;0.30;;;;;;;2.95;nan;97573.13;5113478;28;20645;-70
2021/12/02 02:01:41;;;;;;;0.60;0.40;;;;;;;2.71;nan;97621.38;5113610;28;20427;-70
2021/12/02 02:04:07;;;;;;;0.83;0.50;;;;;;;2.83;nan;97625.75;5095242;28;20204;-70
2021/12/02 02:06:38;;;;;;;0.60;0.60;;;;;;;2.85;nan;97617.75;5095439;28;20292;-69
2021/12/02 02:09:05;;;;;;;0.73;0.63;;;;;;;2.98;nan;97628.25;5095226;28;20252;-70
2021/12/02 02:11:31;;;;;;;1.10;0.80;;;;;;;3.08;nan;97637.16;5095199;28;20204;-70
2021/12/02 02:13:57;;;;;;;2.27;0.60;;;;;;;2.79;nan;97611.13;5095238;28;20197;-70
2021/12/02 02:16:23;;;;;;;1.83;0.87;;;;;;;2.83;nan;97699.50;5095264;28;20559;-70
2021/12/02 02:18:48;;;;;;;1.40;0.90;;;;;;;2.79;nan;97619.03;5078484;28;20169;-70
2021/12/02 02:21:17;;;;;;;1.33;1.00;;;;;;;3.01;nan;97646.47;5113394;28;20170;-70
2021/12/02 02:23:57;;;;;;;1.27;1.00;;;;;;;2.70;nan;97640.75;5113201;28;20332;-70
2021/12/02 02:26:27;;;;;;;1.37;1.00;;;;;;;2.89;nan;97656.06;5097361;28;20181;-68
2021/12/02 02:28:54;;;;;;;3.13;1.40;;;;;;;2.77;nan;97636.72;5095554;28;20166;-68
2021/12/02 02:31:20;;;;;;;1.77;1.07;;;;;;;2.76;nan;97644.75;5078191;28;20444;-69
2021/12/02 02:33:49;;;;;;;1.83;1.03;;;;;;;2.88;nan;97687.78;5113229;28;20632;-69
2021/12/02 02:36:15;;;;;;;2.60;0.83;;;;;;;2.98;nan;97713.41;5113057;28;20189;-69
2021/12/02 02:38:40;;;;;;;1.10;1.00;;;;;;;2.93;nan;97656.69;5113140;28;20170;-68
2021/12/02 02:41:08;;;;;;;3.63;1.10;;;;;;;2.94;nan;97661.00;5113124;28;20173;-70
2021/12/02 02:43:34;;;;;;;1.40;1.00;;;;;;;2.79;nan;97691.94;5094763;28;20211;-69
2021/12/02 02:46:00;;;;;;;1.73;1.07;;;;;;;2.93;nan;97728.66;5095118;28;20185;-69
2021/12/02 02:48:25;;;;;;;1.80;0.93;;;;;;;2.72;nan;97691.53;5098393;28;20169;-70
2021/12/02 02:50:51;;;;;;;2.37;1.10;;;;;;;2.91;nan;97685.78;5082107;28;20193;-69
2021/12/02 02:53:21;;;;;;;1.00;0.90;;;;;;;2.94;nan;97726.88;5099421;28;20165;-70
2021/12/02 03:01:06;;;;;;;0.87;0.87;;;;;;;2.91;nan;97706.00;5099191;28;20817;-70
2021/12/02 03:03:42;;;;;;;1.70;0.80;;;;;;;2.93;nan;97704.09;5100207;28;20433;-70
2021/12/02 03:06:23;;;;;;;1.57;1.10;;;;;;;3.06;nan;97712.84;5082851;28;20193;-70
2021/12/02 03:08:57;;;;;;;1.20;0.90;;;;;;;2.83;nan;97714.47;5083677;28;20406;-69
2021/12/02 03:11:26;;;;;;;5.03;0.80;;;;;;;2.79;nan;97718.28;5116867;28;20743;-69
2021/12/02 03:13:52;;;;;;;0.80;0.60;;;;;;;2.85;nan;97781.06;5098708;28;20176;-68
2021/12/02 03:16:44;;;;;;;0.80;0.73;;;;;;;2.88;nan;97728.16;5098359;28;20181;-68
2021/12/02 03:19:22;;;;;;;1.83;0.90;;;;;;;2.75;nan;97758.94;5098165;28;20417;-68
2021/12/02 03:21:47;;;;;;;2.80;1.17;;;;;;;2.90;nan;97783.34;5116807;28;20402;-68
2021/12/02 03:24:12;;;;;;;2.67;0.93;;;;;;;2.75;nan;97709.75;5116443;28;20531;-68
2021/12/02 03:26:38;;;;;;;1.20;0.97;;;;;;;2.74;nan;97737.03;5097893;28;20192;-68
2021/12/02 03:29:04;;;;;;;1.23;0.90;;;;;;;2.84;nan;97784.63;5098052;28;20227;-68
2021/12/02 03:31:29;;;;;;;1.00;0.87;;;;;;;2.97;nan;97771.44;5081097;28;20298;-67
2021/12/02 03:33:55;;;;;;;2.07;1.00;;;;;;;2.65;nan;97748.22;5098116;28;20419;-68
2021/12/02 03:36:20;;;;;;;2.37;0.80;;;;;;;2.91;nan;97766.59;5098028;28;20249;-67
2021/12/02 03:38:46;;;;;;;1.63;0.80;;;;;;;2.81;nan;97795.38;5098272;28;20193;-67
2021/12/02 03:41:12;;;;;;;1.70;0.80;;;;;;;2.94;nan;97742.66;5116406;28;20526;-67
2021/12/02 03:43:42;;;;;;;1.53;1.00;;;;;;;3.06;nan;97783.97;5097698;28;20204;-67
2021/12/02 03:46:09;;;;;;;0.77;0.73;;;;;;;3.01;nan;97770.28;5116011;28;20264;-67
2021/12/02 03:48:36;;;;;;;3.03;0.80;;;;;;;3.05;nan;97758.59;5116065;28;20476;-68
2021/12/02 03:51:02;;;;;;;3.13;0.67;;;;;;;2.94;nan;97750.56;5115959;28;20895;-67
2021/12/02 03:53:27;;;;;;;1.40;0.97;;;;;;;3.03;nan;97773.66;5097706;28;20189;-67
2021/12/02 03:55:53;;;;;;;3.03;1.30;;;;;;;3.07;nan;97732.97;5115604;28;20165;-68
2021/12/02 03:58:18;;;;;;;0.60;0.60;;;;;;;3.13;nan;97788.72;5115430;28;20236;-67
2021/12/02 04:00:43;;;;;;;1.10;1.00;;;;;;;2.90;nan;97749.09;5115015;28;20169;-67
2021/12/02 04:03:08;;;;;;;1.10;0.80;;;;;;;3.09;nan;97813.59;5097349;28;20177;-67
2021/12/02 04:05:34;;;;;;;0.50;0.50;;;;;;;3.04;nan;97764.81;5115475;28;20196;-67
2021/12/02 04:07:59;;;;;;;1.33;0.70;;;;;;;3.04;nan;97792.00;5097282;28;20276;-67
2021/12/02 04:10:25;;;;;;;2.87;0.60;;;;;;;3.10;nan;97794.19;5115718;28;20631;-67
2021/12/02 04:13:03;;;;;;;1.10;0.70;;;;;;;3.13;nan;97801.03;5096846;28;20172;-67
2021/12/02 04:15:32;;;;;;;3.17;0.83;;;;;;;2.97;nan;97790.72;5097058;28;20249;-67
2021/12/02 04:17:57;;;;;;;0.73;0.73;;;;;;;3.03;nan;97784.19;5115764;28;20193;-67
2021/12/02 04:20:24;;;;;;;3.23;0.77;;;;;;;3.19;nan;97810.31;5096960;28;20753;-66
2021/12/02 04:22:50;;;;;;;1.40;0.80;;;;;;;3.03;nan;97852.72;5115301;28;20170;-67
2021/12/02 04:25:16;;;;;;;0.47;0.47;;;;;;;3.00;nan;97845.88;5114924;28;20671;-67
2021/12/02 04:27:42;;;;;;;1.60;0.90;;;;;;;3.09;nan;97824.13;5096899;28;20418;-66
2021/12/02 04:30:10;;;;;;;1.23;0.67;;;;;;;3.17;nan;97825.38;5114998;28;20259;-66
2021/12/02 04:32:36;;;;;;;0.93;0.80;;;;;;;3.10;nan;97832.88;5096887;28;20166;-66
2021/12/02 04:35:02;;;;;;;0.80;0.60;;;;;;;3.12;nan;97834.47;5097022;28;20261;-66
2021/12/02 04:37:29;;;;;;;1.13;0.53;;;;;;;3.08;nan;97845.31;5115086;28;20196;-66
2021/12/02 04:39:54;;;;;;;1.63;0.63;;;;;;;3.09;nan;97862.81;5097245;28;20405;-66
2021/12/02 04:42:20;;;;;;;2.43;0.80;;;;;;;3.11;nan;97877.56;5096909;28;20398;-66
2021/12/02 04:44:45;;;;;;;0.73;0.53;;;;;;;3.00;nan;97855.56;5096654;28;20251;-67
2021/12/02 04:47:10;;;;;;;1.97;0.60;;;;;;;2.96;nan;97883.03;5114828;28;20196;-67
2021/12/02 04:49:37;;;;;;;0.93;0.60;;;;;;;3.40;nan;97891.38;5115311;28;20184;-66
2021/12/02 04:52:02;;;;;;;0.80;0.80;;;;;;;3.13;nan;97866.94;5112587;28;20185;-66
2021/12/02 04:54:27;;;;;;;2.93;1.00;;;;;;;3.12;nan;97883.69;5096285;28;20673;-67
2021/12/02 04:56:53;;;;;;;0.50;0.50;;;;;;;3.01;nan;97891.50;5114529;28;20208;-66
2021/12/02 04:59:18;;;;;;;1.83;0.83;;;;;;;2.99;nan;97845.97;5114857;28;20222;-65
2021/12/02 05:01:44;;;;;;;1.90;0.70;;;;;;;2.99;nan;97894.25;5096487;28;20176;-66
2021/12/02 05:04:09;;;;;;;1.03;0.60;;;;;;;3.02;nan;97922.16;5079209;28;20635;-65
2021/12/02 05:06:34;;;;;;;0.97;0.70;;;;;;;3.02;nan;97922.16;5114097;28;20194;-66
2021/12/02 05:09:00;;;;;;;0.60;0.60;;;;;;;3.08;nan;97911.19;5095769;28;20207;-66
2021/12/02 05:11:25;;;;;;;1.03;0.80;;;;;;;2.91;nan;97904.44;5094848;28;20264;-66
2021/12/02 05:13:51;;;;;;;0.57;0.57;;;;;;;3.06;nan;97910.47;5095757;28;20176;-66
2021/12/02 05:16:16;;;;;;;2.30;0.80;;;;;;;2.97;nan;97896.09;5114222;28;20540;-67
2021/12/02 05:18:41;;;;;;;0.70;0.70;;;;;;;2.90;nan;97915.06;5114018;28;20516;-66
2021/12/02 05:21:07;;;;;;;2.07;0.87;;;;;;;3.17;nan;97925.53;5113972;28;20223;-67
2021/12/02 05:23:33;;;;;;;4.07;0.80;;;;;;;2.97;nan;97908.44;5095660;28;20169;-66
2021/12/02 05:25:58;;;;;;;1.43;0.70;;;;;;;2.78;nan;97922.88;5113710;28;20318;-68
2021/12/02 05:28:23;;;;;;;1.00;0.80;;;;;;;3.03;nan;97956.31;5114059;28;20166;-66
2021/12/02 05:30:49;;;;;;;1.07;0.60;;;;;;;2.86;nan;97953.13;5113974;28;20176;-66
2021/12/02 05:33:14;;;;;;;1.00;0.70;;;;;;;3.00;nan;97982.03;5115214;28;20623;-67
2021/12/02 05:35:40;;;;;;;2.07;0.80;;;;;;;3.13;nan;97949.47;5097448;28;20166;-67
2021/12/02 05:38:05;;;;;;;3.13;1.03;;;;;;;3.28;nan;97988.88;5096728;28;20178;-64
2021/12/02 05:40:31;;;;;;;0.77;0.73;;;;;;;3.31;nan;97971.06;5096156;28;20177;-68
2021/12/02 05:42:56;;;;;;;0.87;0.60;;;;;;;2.97;nan;98011.19;5114127;28;20196;-67
2021/12/02 05:45:21;;;;;;;1.60;0.93;;;;;;;2.93;nan;97975.47;5078461;28;20190;-66
2021/12/02 05:47:47;;;;;;;0.63;0.63;;;;;;;3.10;nan;97985.72;5113778;28;20185;-69
2021/12/02 05:50:12;;;;;;;1.13;0.73;;;;;;;3.02;nan;97999.44;5113864;28;20658;-68
2021/12/02 05:52:37;;;;;;;0.80;0.60;;;;;;;2.83;nan;98034.03;5095586;28;20193;-68
2021/12/02 05:55:03;;;;;;;2.23;1.10;;;;;;;3.05;nan;98025.56;5078605;28;20180;-66
2021/12/02 05:57:31;;;;;;;1.00;0.70;;;;;;;2.91;nan;98012.44;5139018;22;20216;-70
2021/12/02 05:59:56;;;;;;;0.87;0.60;;;;;;;3.00;nan;98047.91;5134458;27;20224;-71
2021/12/02 06:02:21;;;;;;;4.07;0.70;;;;;;;3.01;nan;98012.72;5135693;28;20169;-70
2021/12/02 06:04:50;;;;;;;2.03;0.60;;;;;;;2.90;nan;98021.31;5135344;27;20223;-70
2021/12/02 06:07:16;;;;;;;2.03;1.17;;;;;;;3.03;nan;98048.53;5134563;27;20199;-70
2021/12/02 06:09:41;;;;;;;1.57;0.80;;;;;;;3.06;nan;98074.69;5135172;27;20416;-69
2021/12/02 06:12:07;;;;;;;1.10;0.77;;;;;;;2.97;nan;98069.16;5134516;28;20288;-70
2021/12/02 06:14:32;;;;;;;1.13;0.90;;;;;;;3.08;nan;98059.63;5133288;28;20638;-70
2021/12/02 06:16:57;;;;;;;0.80;0.60;;;;;;;2.87;nan;98025.94;5115572;28;20189;-70
2021/12/02 06:19:22;;;;;;;2.17;0.97;;;;;;;2.88;nan;98067.97;5134415;27;20180;-69
2021/12/02 06:21:50;;;;;;;1.33;0.70;;;;;;;3.03;nan;98050.34;5132952;27;20574;-70
2021/12/02 06:24:15;;;;;;;2.73;0.87;;;;;;;3.03;nan;98058.25;5138412;27;20605;-69
2021/12/02 06:26:40;;;;;;;2.37;0.70;;;;;;;2.85;nan;98059.44;5136669;27;20435;-70
2021/12/02 06:29:06;;;;;;;0.73;0.63;;;;;;;2.97;nan;98043.66;5136761;27;20186;-70
2021/12/02 06:31:31;;;;;;;0.70;0.60;;;;;;;2.86;nan;98055.84;5138307;27;20218;-70
2021/12/02 06:33:56;;;;;;;1.00;0.80;;;;;;;2.95;nan;98056.09;5136879;27;20175;-70
2021/12/02 06:36:22;;;;;;;2.00;0.80;;;;;;;2.77;nan;98099.44;5137955;27;20239;-69
2021/12/02 06:38:47;;;;;;;0.70;0.70;;;;;;;3.07;nan;98075.53;5138255;27;20169;-69
2021/12/02 06:41:12;;;;;;;2.50;0.80;;;;;;;2.88;nan;98086.41;5137885;27;20174;-69
2021/12/02 06:43:37;;;;;;;0.93;0.53;;;;;;;3.00;nan;98095.34;5136819;27;20231;-69
2021/12/02 06:46:03;;;;;;;2.33;1.00;;;;;;;2.77;nan;98081.84;5138004;27;20176;-70
2021/12/02 06:48:28;;;;;;;0.80;0.80;;;;;;;2.92;nan;98114.25;5136622;27;20269;-70
2021/12/02 06:50:53;;;;;;;3.03;0.70;;;;;;;3.09;nan;98102.63;5137977;27;20653;-70
2021/12/02 06:53:19;;;;;;;1.83;0.93;;;;;;;2.97;nan;98092.88;5137696;27;20180;-70
2021/12/02 06:55:45;;;;;;;2.00;0.90;;;;;;;3.02;nan;98103.97;5137626;27;20178;-70
2021/12/02 06:58:10;;;;;;;1.90;0.90;;;;;;;2.90;nan;98133.75;5137276;27;20208;-70
2021/12/02 07:00:36;;;;;;;1.10;0.70;;;;;;;3.14;nan;98108.44;5135992;27;20260;-69
2021/12/02 07:03:01;;;;;;;2.50;0.80;;;;;;;3.16;nan;98114.47;5137378;27;20165;-69
2021/12/02 07:05:29;;;;;;;0.93;0.73;;;;;;;3.13;nan;98123.41;5135946;27;20193;-69
2021/12/02 07:07:54;;;;;;;1.63;0.73;;;;;;;3.03;nan;98137.28;5137153;27;20192;-69
2021/12/02 07:10:24;;;;;;;0.60;0.50;;;;;;;3.06;nan;98134.47;5135896;27;20173;-70
2021/12/02 07:12:53;;;;;;;1.97;0.97;;;;;;;3.19;nan;98135.34;5137040;27;20175;-69
2021/12/02 07:15:27;;;;;;;0.50;0.50;;;;;;;2.97;nan;98141.16;5136000;27;20528;-70
2021/12/02 07:17:57;;;;;;;2.27;0.80;;;;;;;3.37;nan;98154.38;5135738;27;20503;-69
2021/12/02 07:20:23;;;;;;;2.27;0.83;;;;;;;3.12;nan;98168.31;5135770;27;20161;-70
2021/12/02 07:22:48;;;;;;;1.70;0.80;;;;;;;3.28;nan;98168.16;5135655;27;20412;-69
2021/12/02 07:25:14;;;;;;;1.57;0.80;;;;;;;3.36;nan;98176.44;5137246;27;20576;-70
2021/12/02 07:27:39;;;;;;;2.77;0.80;;;;;;;3.37;nan;98180.75;5137151;27;20642;-70
2021/12/02 07:30:06;;;;;;;3.00;1.00;;;;;;;3.49;nan;98158.84;5118301;27;20177;-70
2021/12/02 07:32:40;;;;;;;0.93;0.90;;;;;;;3.58;nan;98210.13;5135509;27;20177;-70
2021/12/02 07:35:14;;;;;;;2.10;0.63;;;;;;;3.27;nan;98182.28;5135746;27;20403;-70
2021/12/02 07:38:00;;;;;;;5.00;0.90;;;;;;;3.30;nan;98206.66;5135220;27;20282;-69
2021/12/02 07:40:27;;;;;;;1.90;0.80;;;;;;;3.42;nan;98224.31;5136359;27;20511;-70
2021/12/02 07:42:53;;;;;;;0.97;0.90;;;;;;;3.40;nan;98230.66;5118113;27;20173;-69
2021/12/02 07:45:20;;;;;;;3.33;0.80;;;;;;;3.35;nan;98259.94;5135291;27;20219;-70
2021/12/02 07:47:45;;;;;;;3.17;0.73;;;;;;;3.09;nan;98240.53;5135073;27;20267;-70
2021/12/02 07:50:13;;;;;;;1.00;0.90;;;;;;;3.23;nan;98244.91;5135454;27;20601;-70
2021/12/02 07:52:45;;;;;;;4.00;1.00;;;;;;;3.44;nan;98266.41;5118006;27;20173;-70
2021/12/02 07:55:13;;;;;;;2.20;0.60;;;;;;;3.26;nan;98278.97;5137067;27;20177;-69
2021/12/02 07:57:40;;;;;;;2.40;1.50;;;;;;;3.23;nan;98280.97;5136312;27;20226;-70
2021/12/02 08:00:07;;;;;;;3.50;1.40;;;;;;;3.16;nan;98296.31;5136663;27;20416;-70
2021/12/02 08:02:33;;;;;;;4.03;1.40;;;;;;;3.22;nan;98287.19;5135049;27;20177;-69
2021/12/02 08:04:59;;;;;;;2.83;1.37;;;;;;;3.34;nan;98303.06;5136205;27;20197;-69
2021/12/02 08:07:24;;;;;;;1.53;0.70;;;;;;;3.14;nan;98321.94;5136182;27;20192;-70
2021/12/02 08:09:50;;;;;;;5.17;1.30;;;;;;;3.22;nan;98321.44;5135346;27;20176;-70
2021/12/02 08:12:15;;;;;;;0.90;0.73;;;;;;;3.07;nan;98333.81;5134776;27;20176;-70
2021/12/02 08:14:40;;;;;;;2.50;1.03;;;;;;;3.16;nan;98354.31;5117905;27;20611;-69
2021/12/02 08:17:06;;;;;;;1.47;0.90;;;;;;;3.08;nan;98367.13;5136681;27;20185;-70
2021/12/02 08:19:31;;;;;;;2.67;1.30;;;;;;;3.20;nan;98349.69;5136236;27;20208;-70
2021/12/02 08:21:56;;;;;;;2.07;1.00;;;;;;;3.08;nan;98383.78;5135934;27;20169;-70
2021/12/02 08:24:23;;;;;;;3.10;1.40;;;;;;;3.16;nan;98388.56;5135776;27;20284;-70
2021/12/02 08:26:49;;;;;;;3.23;1.37;;;;;;;3.16;nan;98388.56;5135409;27;20192;-69
2021/12/02 08:29:14;;;;;;;6.30;1.33;;;;;;;3.25;nan;98385.38;5135731;27;20175;-69
2021/12/02 08:31:39;;;;;;;1.20;1.00;;;;;;;3.12;nan;98389.72;5117257;27;20176;-71
2021/12/02 08:34:05;;;;;;;1.93;0.90;;;;;;;3.29;nan;98400.03;5134407;27;20311;-71
2021/12/02 08:36:41;;;;;;;1.77;1.10;;;;;;;3.11;nan;98399.41;5134354;27;20676;-71
2021/12/02 08:39:07;;;;;;;2.00;0.90;;;;;;;3.10;nan;98420.59;5134714;27;20236;-69
2021/12/02 08:41:33;;;;;;;1.60;0.90;;;;;;;3.06;nan;98432.25;5117429;27;20177;-69
2021/12/02 08:43:58;;;;;;;1.10;1.10;;;;;;;3.00;nan;98446.66;5117657;27;20204;-72
2021/12/02 08:46:26;;;;;;;2.83;1.10;;;;;;;3.00;nan;98444.03;5134212;27;20638;-70
2021/12/02 08:48:53;;;;;;;2.33;1.10;;;;;;;3.24;nan;98425.00;5135978;27;20535;-69
2021/12/02 08:51:18;;;;;;;2.60;0.97;;;;;;;3.17;nan;98429.81;5134582;27;20477;-69
2021/12/02 08:53:43;;;;;;;2.17;1.30;;;;;;;3.22;nan;98443.56;5136319;27;20408;-70
2021/12/02 08:56:09;;;;;;;1.20;0.80;;;;;;;3.22;nan;98440.06;5135468;27;20305;-70
2021/12/02 08:58:36;;;;;;;3.93;1.20;;;;;;;3.27;nan;98452.03;5135625;27;20183;-70
2021/12/02 09:01:01;;;;;;;8.70;1.10;;;;;;;3.12;nan;98463.50;5135639;27;20169;-70
2021/12/02 09:03:27;;;;;;;2.10;1.03;;;;;;;3.16;nan;98480.84;5134350;27;20653;-70
2021/12/02 09:05:52;;;;;;;1.03;0.80;;;;;;;3.22;nan;98498.91;5135822;27;20179;-70
2021/12/02 09:08:19;;;;;;;1.83;0.87;;;;;;;3.29;nan;98494.13;5135190;27;20196;-71
2021/12/02 09:10:45;;;;;;;2.50;1.10;;;;;;;3.28;nan;98487.16;5135777;27;20161;-69
2021/12/02 09:13:10;;;;;;;5.77;2.27;;;;;;;3.28;nan;98495.91;5134458;27;20177;-70
2021/12/02 09:15:37;;;;;;;9.63;2.53;;;;;;;3.60;nan;98501.00;5134153;27;20164;-70
2021/12/02 09:18:02;;;;;;;8.30;3.23;;;;;;;3.62;nan;98520.22;5135518;27;20199;-70
2021/12/02 09:20:27;;;;;;;4.07;2.13;;;;;;;3.24;nan;98501.44;5134169;27;20410;-70
2021/12/02 09:22:52;;;;;;;2.30;1.53;;;;;;;3.28;nan;98538.09;5136081;27;20190;-69
2021/12/02 09:25:18;;;;;;;2.83;1.77;;;;;;;3.29;nan;98507.28;5137901;27;20195;-69
2021/12/02 09:27:44;;;;;;;5.73;1.80;;;;;;;3.32;nan;98528.19;5134659;27;20196;-69
2021/12/02 09:30:10;;;;;;;1.60;1.10;;;;;;;3.35;nan;98523.63;5134423;27;20184;-70
2021/12/02 09:32:36;;;;;;;3.53;1.33;;;;;;;3.39;nan;98546.22;5134673;27;20775;-70
2021/12/02 09:35:02;;;;;;;1.47;1.00;;;;;;;3.47;nan;98558.09;5134326;27;20629;-70
2021/12/02 09:37:28;;;;;;;2.00;1.23;;;;;;;3.62;nan;98573.84;5133241;27;20280;-70
2021/12/02 09:39:53;;;;;;;4.93;1.40;;;;;;;3.46;nan;98551.97;5133369;27;20207;-70
2021/12/02 09:42:19;;;;;;;1.30;0.90;;;;;;;3.43;nan;98557.44;5133762;27;20644;-70
2021/12/02 09:44:47;;;;;;;4.07;1.10;;;;;;;3.45;nan;98539.72;5133182;27;20193;-69
2021/12/02 09:47:12;;;;;;;2.97;1.47;;;;;;;3.64;nan;98587.78;5133584;27;20195;-69
2021/12/02 09:49:38;;;;;;;2.30;1.43;;;;;;;3.40;nan;98562.91;5132813;27;20421;-69
2021/12/02 09:52:05;;;;;;;4.70;2.53;;;;;;;3.62;nan;98573.84;5134394;27;20173;-70
2021/12/02 09:54:41;;;;;;;9.50;3.37;;;;;;;3.79;nan;98586.03;5134371;27;20192;-70
2021/12/02 09:57:10;;;;;;;4.63;2.37;;;;;;;3.37;nan;98566.56;5133790;27;20444;-68
2021/12/02 10:02:12;;;;;;;7.50;2.77;;;;;;;3.80;nan;98581.59;5134847;27;20158;-70
2021/12/02 10:04:44;;;;;;;8.30;2.43;;;;;;;3.71;nan;98594.38;5132492;28;20209;-68
2021/12/02 10:07:17;;;;;;;2.33;1.73;;;;;;;3.55;nan;98579.59;5133368;28;20200;-68
2021/12/02 10:09:54;;;;;;;4.20;2.43;;;;;;;3.83;nan;98598.09;5133059;28;20416;-69
2021/12/02 10:12:22;;;;;;;3.13;1.47;;;;;;;3.55;nan;98577.78;5133676;27;20161;-69
2021/12/02 10:14:54;;;;;;;1.40;1.20;;;;;;;3.80;nan;98603.56;5132744;28;20584;-69
2021/12/02 10:17:39;;;;;;;1.87;1.07;;;;;;;3.89;nan;98621.47;5115382;28;20513;-69
2021/12/02 10:23:21;;;;;;;1.90;1.13;;;;;;;3.81;nan;98618.44;5132868;28;20288;-70
2021/12/02 10:25:55;;;;;;;2.17;1.13;;;;;;;4.08;nan;98606.19;5132637;28;20440;-70
2021/12/02 10:28:21;;;;;;;2.50;0.90;;;;;;;3.78;nan;98608.06;5133869;27;20223;-70
2021/12/02 10:30:49;;;;;;;2.60;1.27;;;;;;;4.00;nan;98642.75;5134068;27;20165;-69
2021/12/02 10:33:28;;;;;;;2.80;1.73;;;;;;;3.86;nan;98620.81;5133624;27;20169;-69
2021/12/02 10:35:53;;;;;;;34.57;18.10;;;;;;;3.89;nan;98629.38;5133532;27;20212;-69
2021/12/02 10:38:39;;;;;;;5.23;3.33;;;;;;;4.12;nan;98664.94;5133530;27;20591;-69
2021/12/02 10:41:06;;;;;;;18.53;9.17;;;;;;;4.23;nan;98644.00;5133593;27;20204;-68
2021/12/02 10:43:31;;;;;;;5.17;3.33;;;;;;;4.49;nan;98654.75;5133649;27;20172;-70
2021/12/02 10:46:17;;;;;;;10.67;5.00;;;;;;;4.33;nan;98665.41;5133116;28;20173;-70
2021/12/02 10:48:51;;;;;;;7.23;3.87;;;;;;;4.21;nan;98652.97;5132679;28;20173;-69
2021/12/02 10:51:40;;;;;;;2.87;1.77;;;;;;;4.23;nan;98657.22;5132557;28;20165;-69
2021/12/02 10:54:08;;;;;;;1.30;1.03;;;;;;;3.98;nan;98665.75;5115304;28;20201;-69
2021/12/02 10:56:35;;;;;;;1.47;1.20;;;;;;;4.09;nan;98675.69;5132095;27;20217;-68
2021/12/02 10:59:27;;;;;;;2.70;0.90;;;;;;;4.27;nan;98692.19;5133557;27;20181;-69
2021/12/02 11:01:54;;;;;;;4.83;1.17;;;;;;;3.91;nan;98680.28;5132450;28;20542;-68
2021/12/02 11:04:20;;;;;;;3.90;1.13;;;;;;;3.92;nan;98666.13;5132367;28;20228;-68
2021/12/02 11:06:47;;;;;;;3.77;1.10;;;;;;;3.90;nan;98686.50;5132427;28;20507;-68
2021/12/02 11:09:32;;;;;;;1.50;0.90;;;;;;;4.33;nan;98705.88;5134461;27;20177;-70
2021/12/02 11:12:24;;;;;;;2.03;0.90;;;;;;;4.29;nan;98696.44;5137517;27;20451;-69
2021/12/02 11:14:54;;;;;;;3.10;1.10;;;;;;;4.22;nan;98686.34;5135128;27;20241;-70
2021/12/02 11:17:20;;;;;;;1.77;1.00;;;;;;;4.26;nan;98695.78;5137332;27;20279;-70
2021/12/02 11:19:47;;;;;;;1.23;0.90;;;;;;;4.46;nan;98707.75;5136253;27;20204;-70
2021/12/02 11:22:19;;;;;;;2.00;1.00;;;;;;;4.22;nan;98696.91;5136351;27;20171;-69
2021/12/02 11:24:45;;;;;;;4.20;1.13;;;;;;;4.15;nan;98704.38;5135480;27;20224;-69
2021/12/02 11:27:21;;;;;;;2.83;1.43;;;;;;;4.30;nan;98714.00;5135875;27;20195;-70
2021/12/02 11:29:52;;;;;;;1.23;1.10;;;;;;;4.50;nan;98704.84;5135358;27;20181;-69
2021/12/02 11:32:57;;;;;;;4.27;1.23;;;;;;;4.53;nan;98741.66;5118277;27;20198;-69
2021/12/02 11:35:34;;;;;;;2.20;1.20;;;;;;;4.34;nan;98730.50;5096754;28;20184;-69
2021/12/02 11:38:04;;;;;;;1.97;0.83;;;;;;;4.38;nan;98726.72;5079506;28;20228;-69
2021/12/02 11:40:40;;;;;;;0.83;0.77;;;;;;;4.14;nan;98765.19;5126850;27;20713;-69
2021/12/02 11:43:07;;;;;;;2.03;0.90;;;;;;;4.23;nan;98748.78;5117749;27;20168;-69
2021/12/02 11:45:36;;;;;;;2.77;1.37;;;;;;;4.21;nan;98759.44;5136267;27;20253;-69
2021/12/02 11:48:02;;;;;;;1.97;1.20;;;;;;;4.31;nan;98767.66;5136229;27;20197;-68
2021/12/02 11:50:29;;;;;;;2.50;1.07;;;;;;;4.17;nan;98760.56;5135031;27;20181;-68
2021/12/02 11:52:54;;;;;;;2.80;1.23;;;;;;;4.29;nan;98764.25;5136584;27;20169;-68
2021/12/02 11:55:23;;;;;;;1.80;1.20;;;;;;;4.35;nan;98766.53;5137738;27;20713;-70
2021/12/02 11:57:49;;;;;;;2.83;1.23;;;;;;;4.37;nan;98788.41;5137127;27;20230;-67
2021/12/02 12:00:18;;;;;;;1.40;1.00;;;;;;;4.59;nan;98793.25;5134964;27;20633;-68
2021/12/02 12:02:51;;;;;;;2.63;1.00;;;;;;;4.56;nan;98782.88;5135384;27;20725;-70
2021/12/02 12:05:22;;;;;;;5.70;0.93;;;;;;;4.46;nan;98801.09;5136028;27;20255;-68
2021/12/02 12:07:47;;;;;;;3.13;1.33;;;;;;;4.18;nan;98806.31;5135321;27;20201;-67
2021/12/02 12:10:26;;;;;;;2.63;1.53;;;;;;;4.70;nan;98807.50;5134805;27;20229;-67
2021/12/02 12:12:52;;;;;;;1.03;0.90;;;;;;;4.52;nan;98798.06;5136450;27;20623;-69
2021/12/02 12:15:41;;;;;;;2.10;0.90;;;;;;;4.74;nan;98807.31;5136559;27;20169;-68